Cheyenne — WDE9553 — position and weather

sailwx.info

Track history (hours):
 
Tides and Currents Weather Stations Pressure Air Temp Water Temp Dewpoint Dewpoint Depression Visibility Wind Speed Wind Dir Waves Ship Positions

Cheyenne

Owner: DMC MARINE, LLC, HILLSIDE, NJ. More information available from US FCC via Universal Licensing System and Coast Guard Vessel Documentation Center.

Last reported at 2014-Dec-07 13:16 UTC. Time now 2014-Dec-22 19:55 UTC.
Position N 40°48' W 073°59'.
Warning: this ship's position is 15 days out of date.

Length 29 m; draft 4 m.

Type: Towing. MMSI: 367418570.

Date/timePositionNaut miles runAvg speedWind from/ knotsBaromVisibWave heightAir tempDewpointWater temp
2014-Dec-07 13:16N 40°48' W 073°59'811.1
2014-Dec-07 12:33N 40°41' W 074°03'2 1.6
2014-Dec-07 11:33N 40°41' W 074°05'0 0.0
2014-Dec-07 10:33N 40°41' W 074°05'0 0.0
2014-Dec-07 09:33N 40°41' W 074°05'0 0.0
2014-Dec-07 08:33N 40°41' W 074°05'0 0.0
2014-Dec-07 07:33N 40°41' W 074°05'0 0.0
2014-Dec-07 06:33N 40°41' W 074°05'0 0.0
2014-Dec-07 05:33N 40°41' W 074°05'0 0.0
2014-Dec-07 04:33N 40°41' W 074°05'0 0.1
2014-Dec-07 01:33N 40°41' W 074°04'1 1.3
2014-Dec-07 00:33N 40°41' W 074°03'3 3.3
2014-Dec-06 23:33N 40°43' W 073°59'2 2.0
2014-Dec-06 22:27N 40°44' W 073°57'0 0.0
2014-Dec-06 21:27N 40°44' W 073°57'3 3.3
2014-Dec-06 20:33N 40°42' W 073°60'4 3.8
2014-Dec-06 19:33N 40°41' W 074°05'1 1.3
2014-Dec-06 18:33N 40°41' W 074°03'6 6.4
2014-Dec-06 17:33N 40°46' W 073°57'9 4.2
2014-Dec-06 15:29N 40°51' W 073°49'1 1.1
2014-Dec-06 14:20N 40°52' W 073°49'9 5.0
2014-Dec-06 12:30N 40°46' W 073°57'7 7.2
2014-Dec-06 11:33N 40°41' W 074°04'1 0.7
2014-Dec-06 10:23N 40°41' W 074°05'0 0.0
2014-Dec-06 09:33N 40°41' W 074°05'0 0.0
2014-Dec-06 08:33N 40°41' W 074°05'0 0.0
2014-Dec-06 07:31N 40°41' W 074°05'0 0.0
2014-Dec-06 06:33N 40°41' W 074°05'0 0.0
2014-Dec-06 05:33N 40°41' W 074°05'0 0.0
2014-Dec-06 04:33N 40°41' W 074°05'0 0.0
2014-Dec-06 02:31N 40°41' W 074°05'0 0.0
2014-Dec-06 01:28N 40°41' W 074°05'0 0.0
2014-Dec-06 00:33N 40°41' W 074°05'2 1.6
2014-Dec-05 23:33N 40°40' W 074°03'2 2.2
2014-Dec-05 22:33N 40°40' W 073°60'4 3.7
2014-Dec-05 21:33N 40°41' W 074°05'0 0.0
2014-Dec-05 20:32N 40°41' W 074°05'0 0.0
2014-Dec-05 19:30N 40°41' W 074°05'0 0.0
2014-Dec-05 18:32N 40°41' W 074°05'0 0.0
2014-Dec-05 17:33N 40°41' W 074°05'1 1.1
2014-Dec-05 16:33N 40°40' W 074°04'6 5.7
2014-Dec-05 15:31N 40°46' W 074°01'4 4.5
2014-Dec-05 14:33N 40°50' W 073°58'3 0.1
2014-Dec-03 20:33N 40°47' W 073°60'6 5.5
2014-Dec-03 19:33N 40°42' W 074°02'2 2.1
2014-Dec-03 18:32N 40°41' W 074°05'0 0.0
2014-Dec-03 16:33N 40°41' W 074°05'1 1.3
2014-Dec-03 15:30N 40°41' W 074°03'9 1.3
2014-Dec-03 09:08N 40°47' W 073°55'5 9.6
2014-Dec-03 08:33N 40°42' W 073°59'4 3.9
2014-Dec-03 07:31N 40°41' W 074°05'0 0.0
2014-Dec-03 06:33N 40°41' W 074°05'0 0.0
2014-Dec-03 05:33N 40°41' W 074°05'0 0.0
2014-Dec-03 04:33N 40°41' W 074°05'3 3.2
2014-Dec-03 03:33N 40°42' W 074°00'4 3.6
2014-Dec-03 02:33N 40°44' W 073°57'2 2.5
2014-Dec-03 01:33N 40°42' W 073°59'4 4.3
2014-Dec-03 00:33N 40°41' W 074°05'2 2.4
2014-Dec-02 23:33N 40°42' W 074°01'4 4.2
2014-Dec-02 22:31N 40°44' W 073°57'1 0.8
2014-Dec-02 21:33N 40°44' W 073°58'6 6.0
2014-Dec-02 20:33N 40°41' W 074°04'1 0.5
2014-Dec-02 19:33N 40°41' W 074°05'0 0.0
2014-Dec-02 18:32N 40°41' W 074°05'0 0.0
2014-Dec-02 17:33N 40°41' W 074°05'0 0.0
2014-Dec-02 16:33N 40°41' W 074°05'0 0.0
2014-Dec-02 15:33N 40°41' W 074°05'0 0.0
2014-Dec-02 14:33N 40°41' W 074°05'0 0.0
2014-Dec-02 13:33N 40°41' W 074°05'0 0.0
2014-Dec-02 12:33N 40°41' W 074°05'0 0.0
2014-Dec-02 11:33N 40°41' W 074°05'0 0.0
2014-Dec-02 10:33N 40°41' W 074°05'2 2.5
2014-Dec-02 09:33N 40°40' W 074°01'1 1.2
2014-Dec-02 08:33N 40°40' W 073°60'4 3.7
2014-Dec-02 07:33N 40°41' W 074°05'0 0.0
2014-Dec-02 06:33N 40°41' W 074°05'0 0.0
2014-Dec-02 05:33N 40°41' W 074°05'0 0.0
2014-Dec-02 04:33N 40°41' W 074°05'0 0.0
2014-Dec-02 03:33N 40°41' W 074°05'0 0.0
2014-Dec-02 02:33N 40°41' W 074°05'0 0.0
2014-Dec-02 01:33N 40°41' W 074°05'0 0.0
2014-Dec-02 00:33N 40°41' W 074°05'0 0.0
2014-Dec-01 23:33N 40°41' W 074°05'0 0.0
2014-Dec-01 22:33N 40°41' W 074°05'0 0.0
2014-Dec-01 21:33N 40°41' W 074°05'0 0.0
2014-Dec-01 20:33N 40°41' W 074°05'0 0.0
2014-Dec-01 19:33N 40°41' W 074°05'0 0.0
2014-Dec-01 18:33N 40°41' W 074°05'0 0.0
2014-Dec-01 17:33N 40°41' W 074°05'0 0.0
2014-Dec-01 16:33N 40°41' W 074°05'0 0.0
2014-Dec-01 15:33N 40°41' W 074°05'0 0.0
2014-Dec-01 14:33N 40°41' W 074°05'0 0.0
2014-Dec-01 13:33N 40°41' W 074°05'0 0.0
2014-Dec-01 12:33N 40°41' W 074°05'0 0.0
2014-Dec-01 11:30N 40°41' W 074°05'0 0.0
2014-Dec-01 10:33N 40°41' W 074°05'0 0.0
2014-Dec-01 09:33N 40°41' W 074°05'0 0.0
2014-Dec-01 08:33N 40°41' W 074°05'0 0.0
2014-Dec-01 07:33N 40°41' W 074°05'0 0.0
2014-Dec-01 06:33N 40°41' W 074°05'0 0.0
2014-Dec-01 05:28N 40°41' W 074°05'0 0.0
2014-Dec-01 04:33N 40°41' W 074°05'0 0.0
2014-Dec-01 03:33N 40°41' W 074°05'0 0.0
2014-Dec-01 02:33N 40°41' W 074°05'0 0.0
2014-Dec-01 01:33N 40°41' W 074°05'0 0.0
2014-Dec-01 00:33N 40°41' W 074°05'0 0.0
2014-Nov-30 23:26N 40°41' W 074°05'0 0.0
2014-Nov-30 21:33N 40°41' W 074°05'0 0.1
2014-Nov-30 20:29N 40°41' W 074°05'4 4.0
2014-Nov-30 19:33N 40°40' W 073°60'2 1.5
2014-Nov-30 18:33N 40°40' W 074°02'2 2.2
2014-Nov-30 17:33N 40°41' W 074°05'4 2.7
2014-Nov-30 16:13N 40°39' W 074°09'1 1.2
2014-Nov-30 15:05N 40°41' W 074°08'3 5.2
2014-Nov-30 14:32N 40°39' W 074°05'2 2.0
2014-Nov-30 13:33N 40°41' W 074°05'0 0.0
2014-Nov-30 12:33N 40°41' W 074°05'0 0.0
2014-Nov-30 11:33N 40°41' W 074°05'0 0.0
2014-Nov-30 10:33N 40°41' W 074°05'0 0.0
2014-Nov-30 09:33N 40°41' W 074°05'0 0.0
2014-Nov-30 08:33N 40°41' W 074°05'0 0.0
2014-Nov-30 07:33N 40°41' W 074°05'0 0.0
2014-Nov-30 06:32N 40°41' W 074°05'0 0.0
2014-Nov-30 05:32N 40°41' W 074°05'0 0.0
2014-Nov-30 04:33N 40°41' W 074°05'0 0.0
2014-Nov-30 03:33N 40°41' W 074°05'0 0.0
2014-Nov-30 02:32N 40°41' W 074°05'0 0.0
2014-Nov-30 01:33N 40°41' W 074°05'0 0.0
2014-Nov-30 00:29N 40°41' W 074°05'0 0.0
2014-Nov-29 23:33N 40°41' W 074°05'0 0.0
2014-Nov-29 22:33N 40°41' W 074°05'0 0.0
2014-Nov-29 21:33N 40°41' W 074°05'0 0.0
2014-Nov-29 20:33N 40°41' W 074°05'0 0.0
2014-Nov-29 19:33N 40°41' W 074°05'0 0.0
2014-Nov-29 18:33N 40°41' W 074°05'0 0.0
2014-Nov-29 17:33N 40°41' W 074°05'0 0.0
2014-Nov-29 16:33N 40°41' W 074°05'0 0.0
2014-Nov-29 15:33N 40°41' W 074°05'0 0.0
2014-Nov-29 14:32N 40°41' W 074°05'0 0.0
2014-Nov-29 13:28N 40°41' W 074°05'0 0.0
2014-Nov-29 12:33N 40°41' W 074°05'0 0.0
2014-Nov-29 11:33N 40°41' W 074°05'0 0.0
2014-Nov-29 10:33N 40°41' W 074°05'0 0.0
2014-Nov-29 09:33N 40°41' W 074°05'0 0.0
2014-Nov-29 07:33N 40°41' W 074°05'0 0.0
2014-Nov-29 06:33N 40°41' W 074°05'0 0.0
2014-Nov-29 05:33N 40°41' W 074°05'0 0.0
2014-Nov-29 04:33N 40°41' W 074°05'0 0.0
2014-Nov-29 03:33N 40°41' W 074°05'0 0.0
2014-Nov-29 02:33N 40°41' W 074°05'0 0.0
2014-Nov-29 01:33N 40°41' W 074°05'0 0.0
2014-Nov-29 00:33N 40°41' W 074°05'0 0.0
2014-Nov-28 23:33N 40°41' W 074°05'0 0.0
2014-Nov-28 22:33N 40°41' W 074°05'0 0.0
2014-Nov-28 21:25N 40°41' W 074°05'0 0.1
2014-Nov-28 20:33N 40°41' W 074°05'3 3.5
2014-Nov-28 19:33N 40°44' W 074°01'  
Track history (hours):
 
Tides and Currents Weather Stations Pressure Air Temp Water Temp Dewpoint Dewpoint Depression Visibility Wind Speed Wind Dir Waves Ship Positions

Cheyenne

Owner: DMC MARINE, LLC, HILLSIDE, NJ. More information available from US FCC via Universal Licensing System and Coast Guard Vessel Documentation Center.

Last reported at 2014-Dec-07 13:16 UTC. Time now 2014-Dec-22 19:55 UTC.
Position N 40°48' W 073°59'.
Warning: this ship's position is 15 days out of date.

Length 29 m; draft 4 m.

Type: Towing. MMSI: 367418570.

Date/timePositionNaut miles runAvg speedWind from/ knotsBaromVisibWave heightAir tempDewpointWater temp
2014-Dec-07 13:16N 40°48' W 073°59'811.1
2014-Dec-07 12:33N 40°41' W 074°03'2 1.6
2014-Dec-07 11:33N 40°41' W 074°05'0 0.0
2014-Dec-07 10:33N 40°41' W 074°05'0 0.0
2014-Dec-07 09:33N 40°41' W 074°05'0 0.0
2014-Dec-07 08:33N 40°41' W 074°05'0 0.0
2014-Dec-07 07:33N 40°41' W 074°05'0 0.0
2014-Dec-07 06:33N 40°41' W 074°05'0 0.0
2014-Dec-07 05:33N 40°41' W 074°05'0 0.0
2014-Dec-07 04:33N 40°41' W 074°05'0 0.1
2014-Dec-07 01:33N 40°41' W 074°04'1 1.3
2014-Dec-07 00:33N 40°41' W 074°03'3 3.3
2014-Dec-06 23:33N 40°43' W 073°59'2 2.0
2014-Dec-06 22:27N 40°44' W 073°57'0 0.0
2014-Dec-06 21:27N 40°44' W 073°57'3 3.3
2014-Dec-06 20:33N 40°42' W 073°60'4 3.8
2014-Dec-06 19:33N 40°41' W 074°05'1 1.3
2014-Dec-06 18:33N 40°41' W 074°03'6 6.4
2014-Dec-06 17:33N 40°46' W 073°57'9 4.2
2014-Dec-06 15:29N 40°51' W 073°49'1 1.1
2014-Dec-06 14:20N 40°52' W 073°49'9 5.0
2014-Dec-06 12:30N 40°46' W 073°57'7 7.2
2014-Dec-06 11:33N 40°41' W 074°04'1 0.7
2014-Dec-06 10:23N 40°41' W 074°05'0 0.0
2014-Dec-06 09:33N 40°41' W 074°05'0 0.0
2014-Dec-06 08:33N 40°41' W 074°05'0 0.0
2014-Dec-06 07:31N 40°41' W 074°05'0 0.0
2014-Dec-06 06:33N 40°41' W 074°05'0 0.0
2014-Dec-06 05:33N 40°41' W 074°05'0 0.0
2014-Dec-06 04:33N 40°41' W 074°05'0 0.0
2014-Dec-06 02:31N 40°41' W 074°05'0 0.0
2014-Dec-06 01:28N 40°41' W 074°05'0 0.0
2014-Dec-06 00:33N 40°41' W 074°05'2 1.6
2014-Dec-05 23:33N 40°40' W 074°03'2 2.2
2014-Dec-05 22:33N 40°40' W 073°60'4 3.7
2014-Dec-05 21:33N 40°41' W 074°05'0 0.0
2014-Dec-05 20:32N 40°41' W 074°05'0 0.0
2014-Dec-05 19:30N 40°41' W 074°05'0 0.0
2014-Dec-05 18:32N 40°41' W 074°05'0 0.0
2014-Dec-05 17:33N 40°41' W 074°05'1 1.1
2014-Dec-05 16:33N 40°40' W 074°04'6 5.7
2014-Dec-05 15:31N 40°46' W 074°01'4 4.5
2014-Dec-05 14:33N 40°50' W 073°58'3 0.1
2014-Dec-03 20:33N 40°47' W 073°60'6 5.5
2014-Dec-03 19:33N 40°42' W 074°02'2 2.1
2014-Dec-03 18:32N 40°41' W 074°05'0 0.0
2014-Dec-03 16:33N 40°41' W 074°05'1 1.3
2014-Dec-03 15:30N 40°41' W 074°03'9 1.3
2014-Dec-03 09:08N 40°47' W 073°55'5 9.6
2014-Dec-03 08:33N 40°42' W 073°59'4 3.9
2014-Dec-03 07:31N 40°41' W 074°05'0 0.0
2014-Dec-03 06:33N 40°41' W 074°05'0 0.0
2014-Dec-03 05:33N 40°41' W 074°05'0 0.0
2014-Dec-03 04:33N 40°41' W 074°05'3 3.2
2014-Dec-03 03:33N 40°42' W 074°00'4 3.6
2014-Dec-03 02:33N 40°44' W 073°57'2 2.5
2014-Dec-03 01:33N 40°42' W 073°59'4 4.3
2014-Dec-03 00:33N 40°41' W 074°05'2 2.4
2014-Dec-02 23:33N 40°42' W 074°01'4 4.2
2014-Dec-02 22:31N 40°44' W 073°57'1 0.8
2014-Dec-02 21:33N 40°44' W 073°58'6 6.0
2014-Dec-02 20:33N 40°41' W 074°04'1 0.5
2014-Dec-02 19:33N 40°41' W 074°05'0 0.0
2014-Dec-02 18:32N 40°41' W 074°05'0 0.0
2014-Dec-02 17:33N 40°41' W 074°05'0 0.0
2014-Dec-02 16:33N 40°41' W 074°05'0 0.0
2014-Dec-02 15:33N 40°41' W 074°05'0 0.0
2014-Dec-02 14:33N 40°41' W 074°05'0 0.0
2014-Dec-02 13:33N 40°41' W 074°05'0 0.0
2014-Dec-02 12:33N 40°41' W 074°05'0 0.0
2014-Dec-02 11:33N 40°41' W 074°05'0 0.0
2014-Dec-02 10:33N 40°41' W 074°05'2 2.5
2014-Dec-02 09:33N 40°40' W 074°01'1 1.2
2014-Dec-02 08:33N 40°40' W 073°60'4 3.7
2014-Dec-02 07:33N 40°41' W 074°05'0 0.0
2014-Dec-02 06:33N 40°41' W 074°05'0 0.0
2014-Dec-02 05:33N 40°41' W 074°05'0 0.0
2014-Dec-02 04:33N 40°41' W 074°05'0 0.0
2014-Dec-02 03:33N 40°41' W 074°05'0 0.0
2014-Dec-02 02:33N 40°41' W 074°05'0 0.0
2014-Dec-02 01:33N 40°41' W 074°05'0 0.0
2014-Dec-02 00:33N 40°41' W 074°05'0 0.0
2014-Dec-01 23:33N 40°41' W 074°05'0 0.0
2014-Dec-01 22:33N 40°41' W 074°05'0 0.0
2014-Dec-01 21:33N 40°41' W 074°05'0 0.0
2014-Dec-01 20:33N 40°41' W 074°05'0 0.0
2014-Dec-01 19:33N 40°41' W 074°05'0 0.0
2014-Dec-01 18:33N 40°41' W 074°05'0 0.0
2014-Dec-01 17:33N 40°41' W 074°05'0 0.0
2014-Dec-01 16:33N 40°41' W 074°05'0 0.0
2014-Dec-01 15:33N 40°41' W 074°05'0 0.0
2014-Dec-01 14:33N 40°41' W 074°05'0 0.0
2014-Dec-01 13:33N 40°41' W 074°05'0 0.0
2014-Dec-01 12:33N 40°41' W 074°05'0 0.0
2014-Dec-01 11:30N 40°41' W 074°05'0 0.0
2014-Dec-01 10:33N 40°41' W 074°05'0 0.0
2014-Dec-01 09:33N 40°41' W 074°05'0 0.0
2014-Dec-01 08:33N 40°41' W 074°05'0 0.0
2014-Dec-01 07:33N 40°41' W 074°05'0 0.0
2014-Dec-01 06:33N 40°41' W 074°05'0 0.0
2014-Dec-01 05:28N 40°41' W 074°05'0 0.0
2014-Dec-01 04:33N 40°41' W 074°05'0 0.0
2014-Dec-01 03:33N 40°41' W 074°05'0 0.0
2014-Dec-01 02:33N 40°41' W 074°05'0 0.0
2014-Dec-01 01:33N 40°41' W 074°05'0 0.0
2014-Dec-01 00:33N 40°41' W 074°05'0 0.0
2014-Nov-30 23:26N 40°41' W 074°05'0 0.0
2014-Nov-30 21:33N 40°41' W 074°05'0 0.1
2014-Nov-30 20:29N 40°41' W 074°05'4 4.0
2014-Nov-30 19:33N 40°40' W 073°60'2 1.5
2014-Nov-30 18:33N 40°40' W 074°02'2 2.2
2014-Nov-30 17:33N 40°41' W 074°05'4 2.7
2014-Nov-30 16:13N 40°39' W 074°09'1 1.2
2014-Nov-30 15:05N 40°41' W 074°08'3 5.2
2014-Nov-30 14:32N 40°39' W 074°05'2 2.0
2014-Nov-30 13:33N 40°41' W 074°05'0 0.0
2014-Nov-30 12:33N 40°41' W 074°05'0 0.0
2014-Nov-30 11:33N 40°41' W 074°05'0 0.0
2014-Nov-30 10:33N 40°41' W 074°05'0 0.0
2014-Nov-30 09:33N 40°41' W 074°05'0 0.0
2014-Nov-30 08:33N 40°41' W 074°05'0 0.0
2014-Nov-30 07:33N 40°41' W 074°05'0 0.0
2014-Nov-30 06:32N 40°41' W 074°05'0 0.0
2014-Nov-30 05:32N 40°41' W 074°05'0 0.0
2014-Nov-30 04:33N 40°41' W 074°05'0 0.0
2014-Nov-30 03:33N 40°41' W 074°05'0 0.0
2014-Nov-30 02:32N 40°41' W 074°05'0 0.0
2014-Nov-30 01:33N 40°41' W 074°05'0 0.0
2014-Nov-30 00:29N 40°41' W 074°05'0 0.0
2014-Nov-29 23:33N 40°41' W 074°05'0 0.0
2014-Nov-29 22:33N 40°41' W 074°05'0 0.0
2014-Nov-29 21:33N 40°41' W 074°05'0 0.0
2014-Nov-29 20:33N 40°41' W 074°05'0 0.0
2014-Nov-29 19:33N 40°41' W 074°05'0 0.0
2014-Nov-29 18:33N 40°41' W 074°05'0 0.0
2014-Nov-29 17:33N 40°41' W 074°05'0 0.0
2014-Nov-29 16:33N 40°41' W 074°05'0 0.0
2014-Nov-29 15:33N 40°41' W 074°05'0 0.0
2014-Nov-29 14:32N 40°41' W 074°05'0 0.0
2014-Nov-29 13:28N 40°41' W 074°05'0 0.0
2014-Nov-29 12:33N 40°41' W 074°05'0 0.0
2014-Nov-29 11:33N 40°41' W 074°05'0 0.0
2014-Nov-29 10:33N 40°41' W 074°05'0 0.0
2014-Nov-29 09:33N 40°41' W 074°05'0 0.0
2014-Nov-29 07:33N 40°41' W 074°05'0 0.0
2014-Nov-29 06:33N 40°41' W 074°05'0 0.0
2014-Nov-29 05:33N 40°41' W 074°05'0 0.0
2014-Nov-29 04:33N 40°41' W 074°05'0 0.0
2014-Nov-29 03:33N 40°41' W 074°05'0 0.0
2014-Nov-29 02:33N 40°41' W 074°05'0 0.0
2014-Nov-29 01:33N 40°41' W 074°05'0 0.0
2014-Nov-29 00:33N 40°41' W 074°05'0 0.0
2014-Nov-28 23:33N 40°41' W 074°05'0 0.0
2014-Nov-28 22:33N 40°41' W 074°05'0 0.0
2014-Nov-28 21:25N 40°41' W 074°05'0 0.1
2014-Nov-28 20:33N 40°41' W 074°05'3 3.5
2014-Nov-28 19:33N 40°44' W 074°01'  

Dump ship's entire track history